sensor_id;sensor_type;location;lat;lon;timestamp;P1;durP1;ratioP1;P2;durP2;ratioP2
28625;SDS011;18905;42.668;23.364;2024-03-02T00:00:41;21.30;;;9.55;;
28625;SDS011;18905;42.668;23.364;2024-03-02T00:03:06;20.75;;;8.98;;
28625;SDS011;18905;42.668;23.364;2024-03-02T00:05:34;14.70;;;8.18;;
28625;SDS011;18905;42.668;23.364;2024-03-02T00:08:00;20.08;;;10.70;;
28625;SDS011;18905;42.668;23.364;2024-03-02T00:10:27;25.92;;;11.90;;
28625;SDS011;18905;42.668;23.364;2024-03-02T00:13:13;22.90;;;10.65;;
28625;SDS011;18905;42.668;23.364;2024-03-02T00:15:42;17.80;;;8.63;;
28625;SDS011;18905;42.668;23.364;2024-03-02T00:18:12;30.40;;;11.27;;
28625;SDS011;18905;42.668;23.364;2024-03-02T00:20:39;25.02;;;10.90;;
28625;SDS011;18905;42.668;23.364;2024-03-02T00:23:06;24.48;;;10.57;;
28625;SDS011;18905;42.668;23.364;2024-03-02T00:25:42;25.70;;;10.48;;
28625;SDS011;18905;42.668;23.364;2024-03-02T00:31:08;25.63;;;10.65;;
28625;SDS011;18905;42.668;23.364;2024-03-02T00:33:40;21.85;;;10.70;;
28625;SDS011;18905;42.668;23.364;2024-03-02T00:36:06;25.73;;;11.63;;
28625;SDS011;18905;42.668;23.364;2024-03-02T00:38:33;24.65;;;11.15;;
28625;SDS011;18905;42.668;23.364;2024-03-02T00:41:06;25.02;;;10.32;;
28625;SDS011;18905;42.668;23.364;2024-03-02T00:43:41;23.15;;;10.25;;
28625;SDS011;18905;42.668;23.364;2024-03-02T00:46:10;26.50;;;10.77;;
28625;SDS011;18905;42.668;23.364;2024-03-02T00:48:50;25.42;;;10.30;;
28625;SDS011;18905;42.668;23.364;2024-03-02T00:51:19;22.98;;;10.45;;
28625;SDS011;18905;42.668;23.364;2024-03-02T00:53:45;27.13;;;11.13;;
28625;SDS011;18905;42.668;23.364;2024-03-02T00:56:10;16.30;;;8.48;;
28625;SDS011;18905;42.668;23.364;2024-03-02T01:01:05;23.07;;;9.63;;
28625;SDS011;18905;42.668;23.364;2024-03-02T01:03:31;24.30;;;9.43;;
28625;SDS011;18905;42.668;23.364;2024-03-02T01:05:57;22.10;;;10.00;;
28625;SDS011;18905;42.668;23.364;2024-03-02T01:08:23;21.48;;;10.15;;
28625;SDS011;18905;42.668;23.364;2024-03-02T01:10:49;24.63;;;10.32;;
28625;SDS011;18905;42.668;23.364;2024-03-02T01:13:14;20.63;;;9.82;;
28625;SDS011;18905;42.668;23.364;2024-03-02T01:15:39;24.55;;;10.68;;
28625;SDS011;18905;42.668;23.364;2024-03-02T01:18:05;20.98;;;9.98;;
28625;SDS011;18905;42.668;23.364;2024-03-02T01:20:30;17.42;;;9.23;;
28625;SDS011;18905;42.668;23.364;2024-03-02T01:22:56;21.40;;;10.10;;
28625;SDS011;18905;42.668;23.364;2024-03-02T01:25:21;23.23;;;10.45;;
28625;SDS011;18905;42.668;23.364;2024-03-02T01:27:47;20.50;;;9.10;;
28625;SDS011;18905;42.668;23.364;2024-03-02T01:30:12;26.40;;;10.65;;
28625;SDS011;18905;42.668;23.364;2024-03-02T01:32:38;25.80;;;11.23;;
28625;SDS011;18905;42.668;23.364;2024-03-02T01:35:04;24.98;;;11.27;;
28625;SDS011;18905;42.668;23.364;2024-03-02T01:37:30;19.33;;;9.52;;
28625;SDS011;18905;42.668;23.364;2024-03-02T01:39:55;25.13;;;10.07;;
28625;SDS011;18905;42.668;23.364;2024-03-02T01:42:20;23.83;;;10.07;;
28625;SDS011;18905;42.668;23.364;2024-03-02T01:44:46;27.63;;;10.90;;
28625;SDS011;18905;42.668;23.364;2024-03-02T01:47:11;32.63;;;11.68;;
28625;SDS011;18905;42.668;23.364;2024-03-02T01:49:37;27.08;;;11.07;;
28625;SDS011;18905;42.668;23.364;2024-03-02T01:52:03;23.83;;;10.63;;
28625;SDS011;18905;42.668;23.364;2024-03-02T01:54:29;26.15;;;12.60;;
28625;SDS011;18905;42.668;23.364;2024-03-02T01:56:54;25.15;;;11.25;;
28625;SDS011;18905;42.668;23.364;2024-03-02T01:59:20;25.15;;;11.07;;
28625;SDS011;18905;42.668;23.364;2024-03-02T02:01:45;29.85;;;10.65;;
28625;SDS011;18905;42.668;23.364;2024-03-02T02:04:11;28.63;;;12.57;;
28625;SDS011;18905;42.668;23.364;2024-03-02T02:06:36;32.50;;;13.20;;
28625;SDS011;18905;42.668;23.364;2024-03-02T02:09:02;27.50;;;12.18;;
28625;SDS011;18905;42.668;23.364;2024-03-02T02:11:27;33.92;;;12.73;;
28625;SDS011;18905;42.668;23.364;2024-03-02T02:13:53;29.33;;;11.65;;
28625;SDS011;18905;42.668;23.364;2024-03-02T02:16:20;28.50;;;12.82;;
28625;SDS011;18905;42.668;23.364;2024-03-02T02:18:46;23.65;;;10.52;;
28625;SDS011;18905;42.668;23.364;2024-03-02T02:21:12;26.67;;;11.90;;
28625;SDS011;18905;42.668;23.364;2024-03-02T02:23:37;28.10;;;12.30;;
28625;SDS011;18905;42.668;23.364;2024-03-02T02:26:03;28.48;;;13.05;;
28625;SDS011;18905;42.668;23.364;2024-03-02T02:28:28;26.50;;;11.23;;
28625;SDS011;18905;42.668;23.364;2024-03-02T02:30:54;29.02;;;12.38;;
28625;SDS011;18905;42.668;23.364;2024-03-02T02:33:21;27.30;;;11.68;;
28625;SDS011;18905;42.668;23.364;2024-03-02T02:35:46;28.10;;;14.45;;
28625;SDS011;18905;42.668;23.364;2024-03-02T02:38:12;24.90;;;10.63;;
28625;SDS011;18905;42.668;23.364;2024-03-02T02:40:37;22.13;;;10.57;;
28625;SDS011;18905;42.668;23.364;2024-03-02T02:43:03;32.83;;;11.73;;
28625;SDS011;18905;42.668;23.364;2024-03-02T02:45:28;25.63;;;12.02;;
28625;SDS011;18905;42.668;23.364;2024-03-02T02:47:54;27.45;;;11.57;;
28625;SDS011;18905;42.668;23.364;2024-03-02T02:50:19;25.17;;;11.63;;
28625;SDS011;18905;42.668;23.364;2024-03-02T02:52:45;29.63;;;11.15;;
28625;SDS011;18905;42.668;23.364;2024-03-02T02:55:11;24.65;;;10.50;;
28625;SDS011;18905;42.668;23.364;2024-03-02T02:57:39;31.88;;;12.93;;
28625;SDS011;18905;42.668;23.364;2024-03-02T03:00:15;24.88;;;12.02;;
28625;SDS011;18905;42.668;23.364;2024-03-02T03:02:44;29.20;;;12.35;;
28625;SDS011;18905;42.668;23.364;2024-03-02T03:05:14;28.10;;;11.55;;
28625;SDS011;18905;42.668;23.364;2024-03-02T03:07:40;23.27;;;11.18;;
28625;SDS011;18905;42.668;23.364;2024-03-02T03:10:06;27.17;;;12.20;;
28625;SDS011;18905;42.668;23.364;2024-03-02T03:12:33;31.00;;;11.43;;
28625;SDS011;18905;42.668;23.364;2024-03-02T03:14:59;25.45;;;11.00;;
28625;SDS011;18905;42.668;23.364;2024-03-02T03:17:25;32.47;;;12.35;;
28625;SDS011;18905;42.668;23.364;2024-03-02T03:19:51;31.83;;;12.00;;
28625;SDS011;18905;42.668;23.364;2024-03-02T03:22:16;29.73;;;12.80;;
28625;SDS011;18905;42.668;23.364;2024-03-02T03:24:42;28.35;;;12.38;;
28625;SDS011;18905;42.668;23.364;2024-03-02T03:27:07;31.60;;;13.10;;
28625;SDS011;18905;42.668;23.364;2024-03-02T03:29:33;25.08;;;12.77;;
28625;SDS011;18905;42.668;23.364;2024-03-02T03:31:58;29.50;;;12.20;;
28625;SDS011;18905;42.668;23.364;2024-03-02T03:34:23;29.08;;;11.65;;
28625;SDS011;18905;42.668;23.364;2024-03-02T03:36:49;30.52;;;13.27;;
28625;SDS011;18905;42.668;23.364;2024-03-02T03:39:14;29.65;;;11.95;;
28625;SDS011;18905;42.668;23.364;2024-03-02T03:41:40;32.97;;;13.60;;
28625;SDS011;18905;42.668;23.364;2024-03-02T03:44:06;32.45;;;13.48;;
28625;SDS011;18905;42.668;23.364;2024-03-02T03:46:31;28.73;;;12.60;;
28625;SDS011;18905;42.668;23.364;2024-03-02T03:48:56;34.28;;;14.10;;
28625;SDS011;18905;42.668;23.364;2024-03-02T03:51:22;29.02;;;12.27;;
28625;SDS011;18905;42.668;23.364;2024-03-02T03:53:50;32.25;;;12.93;;
28625;SDS011;18905;42.668;23.364;2024-03-02T03:56:15;31.15;;;13.23;;
28625;SDS011;18905;42.668;23.364;2024-03-02T03:58:41;32.72;;;13.07;;
28625;SDS011;18905;42.668;23.364;2024-03-02T04:01:06;35.20;;;13.25;;
28625;SDS011;18905;42.668;23.364;2024-03-02T04:03:31;30.60;;;14.52;;
28625;SDS011;18905;42.668;23.364;2024-03-02T04:05:57;35.08;;;13.98;;
28625;SDS011;18905;42.668;23.364;2024-03-02T04:08:22;33.70;;;13.52;;
28625;SDS011;18905;42.668;23.364;2024-03-02T04:10:48;31.13;;;13.70;;
28625;SDS011;18905;42.668;23.364;2024-03-02T04:13:13;29.35;;;12.32;;
28625;SDS011;18905;42.668;23.364;2024-03-02T04:15:38;31.73;;;12.75;;
28625;SDS011;18905;42.668;23.364;2024-03-02T04:18:05;30.13;;;13.27;;
28625;SDS011;18905;42.668;23.364;2024-03-02T04:20:31;27.73;;;11.98;;
28625;SDS011;18905;42.668;23.364;2024-03-02T04:22:56;30.27;;;13.38;;
28625;SDS011;18905;42.668;23.364;2024-03-02T04:25:22;28.65;;;12.52;;
28625;SDS011;18905;42.668;23.364;2024-03-02T04:27:47;32.15;;;12.70;;
28625;SDS011;18905;42.668;23.364;2024-03-02T04:30:12;27.45;;;11.93;;
28625;SDS011;18905;42.668;23.364;2024-03-02T04:32:38;27.92;;;12.23;;
28625;SDS011;18905;42.668;23.364;2024-03-02T04:35:04;33.58;;;11.70;;
28625;SDS011;18905;42.668;23.364;2024-03-02T04:37:31;33.28;;;11.60;;
28625;SDS011;18905;42.668;23.364;2024-03-02T04:42:24;28.87;;;11.90;;
28625;SDS011;18905;42.668;23.364;2024-03-02T04:44:50;26.55;;;11.75;;
28625;SDS011;18905;42.668;23.364;2024-03-02T04:47:15;25.85;;;12.20;;
28625;SDS011;18905;42.668;23.364;2024-03-02T04:49:40;27.30;;;11.40;;
28625;SDS011;18905;42.668;23.364;2024-03-02T04:52:06;26.98;;;11.85;;
28625;SDS011;18905;42.668;23.364;2024-03-02T04:54:31;29.75;;;12.05;;
28625;SDS011;18905;42.668;23.364;2024-03-02T04:56:57;27.15;;;12.07;;
28625;SDS011;18905;42.668;23.364;2024-03-02T04:59:23;33.75;;;12.63;;
28625;SDS011;18905;42.668;23.364;2024-03-02T05:01:48;34.28;;;12.00;;
28625;SDS011;18905;42.668;23.364;2024-03-02T05:04:14;33.58;;;12.18;;
28625;SDS011;18905;42.668;23.364;2024-03-02T05:06:40;29.90;;;12.13;;
28625;SDS011;18905;42.668;23.364;2024-03-02T05:09:08;32.55;;;12.80;;
28625;SDS011;18905;42.668;23.364;2024-03-02T05:11:34;33.05;;;12.50;;
28625;SDS011;18905;42.668;23.364;2024-03-02T05:16:29;28.85;;;12.00;;
28625;SDS011;18905;42.668;23.364;2024-03-02T05:18:54;34.10;;;12.57;;
28625;SDS011;18905;42.668;23.364;2024-03-02T05:21:20;34.65;;;13.65;;
28625;SDS011;18905;42.668;23.364;2024-03-02T05:23:45;30.00;;;12.50;;
28625;SDS011;18905;42.668;23.364;2024-03-02T05:26:11;35.13;;;13.38;;
28625;SDS011;18905;42.668;23.364;2024-03-02T05:28:39;36.05;;;12.75;;
28625;SDS011;18905;42.668;23.364;2024-03-02T05:31:04;31.17;;;12.80;;
28625;SDS011;18905;42.668;23.364;2024-03-02T05:33:30;31.75;;;12.77;;
28625;SDS011;18905;42.668;23.364;2024-03-02T05:35:58;35.22;;;13.13;;
28625;SDS011;18905;42.668;23.364;2024-03-02T05:38:23;29.45;;;12.63;;
28625;SDS011;18905;42.668;23.364;2024-03-02T05:40:49;35.75;;;13.27;;
28625;SDS011;18905;42.668;23.364;2024-03-02T05:43:14;29.40;;;13.02;;
28625;SDS011;18905;42.668;23.364;2024-03-02T05:45:39;30.38;;;13.35;;
28625;SDS011;18905;42.668;23.364;2024-03-02T05:48:08;36.00;;;13.57;;
28625;SDS011;18905;42.668;23.364;2024-03-02T05:50:34;35.08;;;13.55;;
28625;SDS011;18905;42.668;23.364;2024-03-02T05:52:59;31.00;;;12.48;;
28625;SDS011;18905;42.668;23.364;2024-03-02T05:55:25;30.05;;;13.20;;
28625;SDS011;18905;42.668;23.364;2024-03-02T05:57:50;32.22;;;14.07;;
28625;SDS011;18905;42.668;23.364;2024-03-02T06:00:31;29.92;;;12.35;;
28625;SDS011;18905;42.668;23.364;2024-03-02T06:02:56;30.42;;;13.63;;
28625;SDS011;18905;42.668;23.364;2024-03-02T06:05:22;41.15;;;14.07;;
28625;SDS011;18905;42.668;23.364;2024-03-02T06:07:47;35.20;;;13.50;;
28625;SDS011;18905;42.668;23.364;2024-03-02T06:10:13;31.65;;;13.15;;
28625;SDS011;18905;42.668;23.364;2024-03-02T06:12:39;32.58;;;14.98;;
28625;SDS011;18905;42.668;23.364;2024-03-02T06:15:04;37.70;;;13.52;;
28625;SDS011;18905;42.668;23.364;2024-03-02T06:17:30;39.85;;;15.27;;
28625;SDS011;18905;42.668;23.364;2024-03-02T06:19:55;42.58;;;16.02;;
28625;SDS011;18905;42.668;23.364;2024-03-02T06:22:21;35.97;;;13.82;;
28625;SDS011;18905;42.668;23.364;2024-03-02T06:24:48;39.00;;;14.10;;
28625;SDS011;18905;42.668;23.364;2024-03-02T06:27:14;34.97;;;14.35;;
28625;SDS011;18905;42.668;23.364;2024-03-02T06:29:39;38.55;;;12.90;;
28625;SDS011;18905;42.668;23.364;2024-03-02T06:32:04;37.30;;;14.02;;
28625;SDS011;18905;42.668;23.364;2024-03-02T06:34:30;33.50;;;13.45;;
28625;SDS011;18905;42.668;23.364;2024-03-02T06:36:56;36.95;;;13.57;;
28625;SDS011;18905;42.668;23.364;2024-03-02T06:39:21;40.42;;;13.70;;
28625;SDS011;18905;42.668;23.364;2024-03-02T06:41:46;30.40;;;13.00;;
28625;SDS011;18905;42.668;23.364;2024-03-02T06:44:12;25.45;;;10.48;;
28625;SDS011;18905;42.668;23.364;2024-03-02T06:46:38;34.83;;;13.60;;
28625;SDS011;18905;42.668;23.364;2024-03-02T06:49:03;32.63;;;13.13;;
28625;SDS011;18905;42.668;23.364;2024-03-02T06:51:29;30.38;;;12.40;;
28625;SDS011;18905;42.668;23.364;2024-03-02T06:53:55;35.03;;;13.55;;
28625;SDS011;18905;42.668;23.364;2024-03-02T06:56:20;31.30;;;12.95;;
28625;SDS011;18905;42.668;23.364;2024-03-02T06:58:46;36.83;;;14.55;;
28625;SDS011;18905;42.668;23.364;2024-03-02T07:01:12;42.65;;;16.20;;
28625;SDS011;18905;42.668;23.364;2024-03-02T07:03:37;36.47;;;14.32;;
28625;SDS011;18905;42.668;23.364;2024-03-02T07:06:04;39.00;;;14.07;;
28625;SDS011;18905;42.668;23.364;2024-03-02T07:08:30;42.33;;;14.05;;
28625;SDS011;18905;42.668;23.364;2024-03-02T07:10:55;35.85;;;13.80;;
28625;SDS011;18905;42.668;23.364;2024-03-02T07:13:22;35.30;;;14.07;;
28625;SDS011;18905;42.668;23.364;2024-03-02T07:15:47;35.75;;;13.50;;
28625;SDS011;18905;42.668;23.364;2024-03-02T07:18:44;40.45;;;13.35;;
28625;SDS011;18905;42.668;23.364;2024-03-02T07:21:16;41.65;;;14.20;;
28625;SDS011;18905;42.668;23.364;2024-03-02T07:23:41;43.30;;;14.82;;
28625;SDS011;18905;42.668;23.364;2024-03-02T07:26:06;43.03;;;15.98;;
28625;SDS011;18905;42.668;23.364;2024-03-02T07:28:32;40.15;;;15.10;;
28625;SDS011;18905;42.668;23.364;2024-03-02T07:30:58;42.65;;;15.40;;
28625;SDS011;18905;42.668;23.364;2024-03-02T07:33:24;39.83;;;17.17;;
28625;SDS011;18905;42.668;23.364;2024-03-02T07:35:50;36.85;;;15.23;;
28625;SDS011;18905;42.668;23.364;2024-03-02T07:38:15;36.38;;;14.32;;
28625;SDS011;18905;42.668;23.364;2024-03-02T07:40:41;35.55;;;13.38;;
28625;SDS011;18905;42.668;23.364;2024-03-02T07:43:07;28.75;;;10.93;;
28625;SDS011;18905;42.668;23.364;2024-03-02T07:45:33;33.50;;;13.63;;
28625;SDS011;18905;42.668;23.364;2024-03-02T07:48:01;26.52;;;11.20;;
28625;SDS011;18905;42.668;23.364;2024-03-02T07:50:26;36.47;;;13.35;;
28625;SDS011;18905;42.668;23.364;2024-03-02T07:52:52;40.50;;;12.52;;
28625;SDS011;18905;42.668;23.364;2024-03-02T07:55:17;36.22;;;13.25;;
28625;SDS011;18905;42.668;23.364;2024-03-02T07:57:43;29.65;;;12.57;;
28625;SDS011;18905;42.668;23.364;2024-03-02T08:00:08;28.73;;;12.07;;
28625;SDS011;18905;42.668;23.364;2024-03-02T08:02:34;33.95;;;13.48;;
28625;SDS011;18905;42.668;23.364;2024-03-02T08:05:00;34.85;;;10.75;;
28625;SDS011;18905;42.668;23.364;2024-03-02T08:07:26;30.02;;;12.15;;
28625;SDS011;18905;42.668;23.364;2024-03-02T08:09:51;27.63;;;11.45;;
28625;SDS011;18905;42.668;23.364;2024-03-02T08:12:17;31.50;;;12.55;;
28625;SDS011;18905;42.668;23.364;2024-03-02T08:14:44;31.80;;;11.75;;
28625;SDS011;18905;42.668;23.364;2024-03-02T08:17:10;35.97;;;13.40;;
28625;SDS011;18905;42.668;23.364;2024-03-02T08:19:36;32.15;;;12.95;;
28625;SDS011;18905;42.668;23.364;2024-03-02T08:22:02;24.77;;;10.82;;
28625;SDS011;18905;42.668;23.364;2024-03-02T08:24:28;41.42;;;14.05;;
28625;SDS011;18905;42.668;23.364;2024-03-02T08:26:53;33.40;;;12.27;;
28625;SDS011;18905;42.668;23.364;2024-03-02T08:29:19;31.25;;;11.82;;
28625;SDS011;18905;42.668;23.364;2024-03-02T08:31:44;34.60;;;12.80;;
28625;SDS011;18905;42.668;23.364;2024-03-02T08:34:09;31.67;;;12.82;;
28625;SDS011;18905;42.668;23.364;2024-03-02T08:36:35;33.03;;;12.13;;
28625;SDS011;18905;42.668;23.364;2024-03-02T08:39:01;27.52;;;12.77;;
28625;SDS011;18905;42.668;23.364;2024-03-02T08:41:27;34.70;;;13.98;;
28625;SDS011;18905;42.668;23.364;2024-03-02T08:43:52;34.53;;;14.07;;
28625;SDS011;18905;42.668;23.364;2024-03-02T08:46:18;40.08;;;14.00;;
28625;SDS011;18905;42.668;23.364;2024-03-02T08:48:43;35.97;;;14.05;;
28625;SDS011;18905;42.668;23.364;2024-03-02T08:51:08;31.02;;;12.32;;
28625;SDS011;18905;42.668;23.364;2024-03-02T08:53:35;33.05;;;12.85;;
28625;SDS011;18905;42.668;23.364;2024-03-02T08:56:01;34.13;;;13.82;;
28625;SDS011;18905;42.668;23.364;2024-03-02T08:58:27;33.55;;;14.75;;
28625;SDS011;18905;42.668;23.364;2024-03-02T09:00:52;32.72;;;13.65;;
28625;SDS011;18905;42.668;23.364;2024-03-02T09:03:17;37.20;;;13.52;;
28625;SDS011;18905;42.668;23.364;2024-03-02T09:05:43;25.13;;;11.27;;
28625;SDS011;18905;42.668;23.364;2024-03-02T09:08:08;35.95;;;15.20;;
28625;SDS011;18905;42.668;23.364;2024-03-02T09:10:34;33.65;;;12.75;;
28625;SDS011;18905;42.668;23.364;2024-03-02T09:12:59;27.75;;;11.55;;
28625;SDS011;18905;42.668;23.364;2024-03-02T09:15:25;30.35;;;12.18;;
28625;SDS011;18905;42.668;23.364;2024-03-02T09:17:50;25.00;;;10.93;;
28625;SDS011;18905;42.668;23.364;2024-03-02T09:20:16;35.75;;;13.68;;
28625;SDS011;18905;42.668;23.364;2024-03-02T09:22:41;25.05;;;10.88;;
28625;SDS011;18905;42.668;23.364;2024-03-02T09:25:07;28.60;;;11.82;;
28625;SDS011;18905;42.668;23.364;2024-03-02T09:27:35;32.85;;;12.27;;
28625;SDS011;18905;42.668;23.364;2024-03-02T09:30:01;30.75;;;12.68;;
28625;SDS011;18905;42.668;23.364;2024-03-02T09:32:27;31.60;;;11.25;;
28625;SDS011;18905;42.668;23.364;2024-03-02T09:34:53;35.45;;;13.25;;
28625;SDS011;18905;42.668;23.364;2024-03-02T09:37:18;28.60;;;12.85;;
28625;SDS011;18905;42.668;23.364;2024-03-02T09:39:44;31.15;;;12.77;;
28625;SDS011;18905;42.668;23.364;2024-03-02T09:42:10;29.95;;;12.10;;
28625;SDS011;18905;42.668;23.364;2024-03-02T09:44:36;30.33;;;12.38;;
28625;SDS011;18905;42.668;23.364;2024-03-02T09:47:02;36.55;;;13.80;;
28625;SDS011;18905;42.668;23.364;2024-03-02T09:49:27;37.17;;;15.68;;
28625;SDS011;18905;42.668;23.364;2024-03-02T09:51:53;33.55;;;14.25;;
28625;SDS011;18905;42.668;23.364;2024-03-02T09:54:18;32.55;;;12.45;;
28625;SDS011;18905;42.668;23.364;2024-03-02T09:56:44;32.90;;;13.05;;
28625;SDS011;18905;42.668;23.364;2024-03-02T09:59:10;27.13;;;12.45;;
28625;SDS011;18905;42.668;23.364;2024-03-02T10:01:35;31.10;;;11.73;;
28625;SDS011;18905;42.668;23.364;2024-03-02T10:04:01;28.60;;;11.00;;
28625;SDS011;18905;42.668;23.364;2024-03-02T10:06:29;33.13;;;12.43;;
28625;SDS011;18905;42.668;23.364;2024-03-02T10:08:55;31.65;;;12.40;;
28625;SDS011;18905;42.668;23.364;2024-03-02T10:11:31;26.17;;;10.40;;
28625;SDS011;18905;42.668;23.364;2024-03-02T10:14:11;28.42;;;11.98;;
28625;SDS011;18905;42.668;23.364;2024-03-02T10:16:38;32.40;;;12.55;;
28625;SDS011;18905;42.668;23.364;2024-03-02T10:19:21;25.15;;;11.77;;
28625;SDS011;18905;42.668;23.364;2024-03-02T10:21:51;22.40;;;10.60;;
28625;SDS011;18905;42.668;23.364;2024-03-02T10:24:22;25.17;;;10.05;;
28625;SDS011;18905;42.668;23.364;2024-03-02T10:26:48;31.17;;;12.27;;
28625;SDS011;18905;42.668;23.364;2024-03-02T10:29:14;26.23;;;11.40;;
28625;SDS011;18905;42.668;23.364;2024-03-02T10:31:40;23.08;;;11.07;;
28625;SDS011;18905;42.668;23.364;2024-03-02T10:34:07;29.60;;;12.30;;
28625;SDS011;18905;42.668;23.364;2024-03-02T10:36:34;30.45;;;11.23;;
28625;SDS011;18905;42.668;23.364;2024-03-02T10:39:01;24.05;;;11.63;;
28625;SDS011;18905;42.668;23.364;2024-03-02T10:41:34;27.67;;;10.60;;
28625;SDS011;18905;42.668;23.364;2024-03-02T10:44:03;23.83;;;10.35;;
28625;SDS011;18905;42.668;23.364;2024-03-02T10:46:30;26.70;;;9.88;;
28625;SDS011;18905;42.668;23.364;2024-03-02T10:48:57;28.42;;;11.30;;
28625;SDS011;18905;42.668;23.364;2024-03-02T10:51:24;24.30;;;11.63;;
28625;SDS011;18905;42.668;23.364;2024-03-02T10:53:51;27.30;;;12.60;;
28625;SDS011;18905;42.668;23.364;2024-03-02T10:56:19;23.48;;;11.25;;
28625;SDS011;18905;42.668;23.364;2024-03-02T10:58:51;20.02;;;8.90;;
28625;SDS011;18905;42.668;23.364;2024-03-02T11:01:26;20.17;;;9.73;;
28625;SDS011;18905;42.668;23.364;2024-03-02T11:03:54;20.45;;;9.43;;
28625;SDS011;18905;42.668;23.364;2024-03-02T11:06:21;22.67;;;9.30;;
28625;SDS011;18905;42.668;23.364;2024-03-02T11:08:49;21.65;;;10.38;;
28625;SDS011;18905;42.668;23.364;2024-03-02T11:11:21;22.75;;;9.45;;
28625;SDS011;18905;42.668;23.364;2024-03-02T11:13:54;16.02;;;8.60;;
28625;SDS011;18905;42.668;23.364;2024-03-02T11:19:05;22.27;;;9.57;;
28625;SDS011;18905;42.668;23.364;2024-03-02T11:21:33;23.55;;;11.02;;
28625;SDS011;18905;42.668;23.364;2024-03-02T11:23:59;30.02;;;10.27;;
28625;SDS011;18905;42.668;23.364;2024-03-02T11:26:24;24.00;;;10.95;;
28625;SDS011;18905;42.668;23.364;2024-03-02T11:28:50;25.65;;;10.05;;
28625;SDS011;18905;42.668;23.364;2024-03-02T11:31:16;18.75;;;9.38;;
28625;SDS011;18905;42.668;23.364;2024-03-02T11:33:41;23.48;;;9.68;;
28625;SDS011;18905;42.668;23.364;2024-03-02T11:36:08;28.27;;;11.02;;
28625;SDS011;18905;42.668;23.364;2024-03-02T11:38:35;34.08;;;13.05;;
28625;SDS011;18905;42.668;23.364;2024-03-02T11:41:01;33.20;;;12.30;;
28625;SDS011;18905;42.668;23.364;2024-03-02T11:43:28;10.93;;;7.03;;
28625;SDS011;18905;42.668;23.364;2024-03-02T11:45:58;19.52;;;9.35;;
28625;SDS011;18905;42.668;23.364;2024-03-02T11:48:28;23.02;;;10.57;;
28625;SDS011;18905;42.668;23.364;2024-03-02T11:50:54;22.42;;;9.20;;
28625;SDS011;18905;42.668;23.364;2024-03-02T11:53:24;22.98;;;9.00;;
28625;SDS011;18905;42.668;23.364;2024-03-02T11:55:52;21.85;;;9.48;;
28625;SDS011;18905;42.668;23.364;2024-03-02T11:58:20;19.08;;;8.88;;
28625;SDS011;18905;42.668;23.364;2024-03-02T12:00:55;16.27;;;8.38;;
28625;SDS011;18905;42.668;23.364;2024-03-02T12:03:24;18.33;;;9.63;;
28625;SDS011;18905;42.668;23.364;2024-03-02T12:05:52;15.20;;;7.63;;
28625;SDS011;18905;42.668;23.364;2024-03-02T12:08:18;17.05;;;7.22;;
28625;SDS011;18905;42.668;23.364;2024-03-02T12:10:43;14.82;;;8.82;;
28625;SDS011;18905;42.668;23.364;2024-03-02T12:13:21;14.85;;;7.82;;
28625;SDS011;18905;42.668;23.364;2024-03-02T12:15:53;16.67;;;8.57;;
28625;SDS011;18905;42.668;23.364;2024-03-02T12:18:22;11.20;;;7.25;;
28625;SDS011;18905;42.668;23.364;2024-03-02T12:20:48;14.70;;;8.07;;
28625;SDS011;18905;42.668;23.364;2024-03-02T12:23:17;15.02;;;7.70;;
28625;SDS011;18905;42.668;23.364;2024-03-02T12:25:43;15.65;;;7.97;;
28625;SDS011;18905;42.668;23.364;2024-03-02T12:28:09;17.27;;;8.10;;
28625;SDS011;18905;42.668;23.364;2024-03-02T12:30:35;18.30;;;9.13;;
28625;SDS011;18905;42.668;23.364;2024-03-02T12:33:00;17.75;;;7.97;;
28625;SDS011;18905;42.668;23.364;2024-03-02T12:35:26;15.13;;;7.88;;
28625;SDS011;18905;42.668;23.364;2024-03-02T12:37:52;18.67;;;9.07;;
28625;SDS011;18905;42.668;23.364;2024-03-02T12:40:19;15.38;;;7.90;;
28625;SDS011;18905;42.668;23.364;2024-03-02T12:42:47;16.08;;;8.23;;
28625;SDS011;18905;42.668;23.364;2024-03-02T12:45:13;20.20;;;8.20;;
28625;SDS011;18905;42.668;23.364;2024-03-02T12:47:39;15.55;;;8.05;;
28625;SDS011;18905;42.668;23.364;2024-03-02T12:50:05;17.15;;;7.45;;
28625;SDS011;18905;42.668;23.364;2024-03-02T12:52:32;15.43;;;8.02;;
28625;SDS011;18905;42.668;23.364;2024-03-02T12:54:59;16.25;;;8.40;;
28625;SDS011;18905;42.668;23.364;2024-03-02T12:57:26;14.05;;;7.75;;
28625;SDS011;18905;42.668;23.364;2024-03-02T13:00:01;15.50;;;8.05;;
28625;SDS011;18905;42.668;23.364;2024-03-02T13:02:34;13.30;;;7.22;;
28625;SDS011;18905;42.668;23.364;2024-03-02T13:05:00;15.05;;;7.45;;
28625;SDS011;18905;42.668;23.364;2024-03-02T13:07:25;12.15;;;6.97;;
28625;SDS011;18905;42.668;23.364;2024-03-02T13:09:52;14.52;;;7.28;;
28625;SDS011;18905;42.668;23.364;2024-03-02T13:12:21;14.63;;;7.32;;
28625;SDS011;18905;42.668;23.364;2024-03-02T13:14:48;15.70;;;7.35;;
28625;SDS011;18905;42.668;23.364;2024-03-02T13:17:16;12.60;;;7.05;;
28625;SDS011;18905;42.668;23.364;2024-03-02T13:19:43;13.45;;;6.20;;
28625;SDS011;18905;42.668;23.364;2024-03-02T13:22:16;13.23;;;7.05;;
28625;SDS011;18905;42.668;23.364;2024-03-02T13:24:42;26.90;;;11.55;;
28625;SDS011;18905;42.668;23.364;2024-03-02T13:27:07;18.05;;;9.27;;
28625;SDS011;18905;42.668;23.364;2024-03-02T13:29:33;12.73;;;7.50;;
28625;SDS011;18905;42.668;23.364;2024-03-02T13:31:59;11.23;;;6.55;;
28625;SDS011;18905;42.668;23.364;2024-03-02T13:34:24;12.43;;;7.88;;
28625;SDS011;18905;42.668;23.364;2024-03-02T13:36:49;13.82;;;7.72;;
28625;SDS011;18905;42.668;23.364;2024-03-02T13:39:15;12.23;;;7.40;;
28625;SDS011;18905;42.668;23.364;2024-03-02T13:41:41;13.77;;;8.20;;
28625;SDS011;18905;42.668;23.364;2024-03-02T13:44:06;13.20;;;8.43;;
28625;SDS011;18905;42.668;23.364;2024-03-02T13:46:32;16.70;;;8.98;;
28625;SDS011;18905;42.668;23.364;2024-03-02T13:48:57;14.07;;;7.57;;
28625;SDS011;18905;42.668;23.364;2024-03-02T13:51:23;16.15;;;8.40;;
28625;SDS011;18905;42.668;23.364;2024-03-02T13:53:50;14.48;;;8.07;;
28625;SDS011;18905;42.668;23.364;2024-03-02T13:56:15;18.73;;;8.80;;
28625;SDS011;18905;42.668;23.364;2024-03-02T13:58:42;16.42;;;8.13;;
28625;SDS011;18905;42.668;23.364;2024-03-02T14:01:08;19.38;;;9.48;;
28625;SDS011;18905;42.668;23.364;2024-03-02T14:03:34;14.57;;;8.63;;
28625;SDS011;18905;42.668;23.364;2024-03-02T14:05:59;22.45;;;10.80;;
28625;SDS011;18905;42.668;23.364;2024-03-02T14:08:25;20.92;;;9.25;;
28625;SDS011;18905;42.668;23.364;2024-03-02T14:10:50;18.63;;;9.88;;
28625;SDS011;18905;42.668;23.364;2024-03-02T14:13:16;19.73;;;9.93;;
28625;SDS011;18905;42.668;23.364;2024-03-02T14:15:41;21.42;;;9.77;;
28625;SDS011;18905;42.668;23.364;2024-03-02T14:18:07;17.33;;;9.23;;
28625;SDS011;18905;42.668;23.364;2024-03-02T14:20:35;17.35;;;8.68;;